createdAt,value
2023-03-07T00:00:22.481Z,5.13
2023-03-07T00:02:51.816Z,5.50
2023-03-07T00:05:18.821Z,4.90
2023-03-07T00:07:45.764Z,5.93
2023-03-07T00:10:12.635Z,5.43
2023-03-07T00:12:39.597Z,5.47
2023-03-07T00:15:07.999Z,5.67
2023-03-07T00:17:38.869Z,4.80
2023-03-07T00:20:07.617Z,4.60
2023-03-07T00:22:35.331Z,4.57
2023-03-07T00:25:02.425Z,4.83
2023-03-07T00:27:30.930Z,4.70
2023-03-07T00:29:58.477Z,4.60
2023-03-07T00:32:25.693Z,4.93
2023-03-07T00:34:52.601Z,4.90
2023-03-07T00:37:19.470Z,5.07
2023-03-07T00:39:46.420Z,4.43
2023-03-07T00:42:13.169Z,4.73
2023-03-07T00:44:40.024Z,4.77
2023-03-07T00:47:07.145Z,4.87
2023-03-07T00:49:34.854Z,4.57
2023-03-07T00:52:02.419Z,4.80
2023-03-07T00:54:29.617Z,4.10
2023-03-07T00:56:56.709Z,4.57
2023-03-07T00:59:24.253Z,4.80
2023-03-07T01:01:51.214Z,4.40
2023-03-07T01:04:18.160Z,4.73
2023-03-07T01:06:44.906Z,3.57
2023-03-07T01:09:14.385Z,4.10
2023-03-07T01:11:41.192Z,4.57
2023-03-07T01:14:08.230Z,3.70
2023-03-07T01:16:38.038Z,3.90
2023-03-07T01:19:08.056Z,3.93
2023-03-07T01:21:37.939Z,4.20
2023-03-07T01:24:10.231Z,3.83
2023-03-07T01:26:37.309Z,4.10
2023-03-07T01:29:06.019Z,4.60
2023-03-07T01:31:37.480Z,4.70
2023-03-07T01:34:05.775Z,4.50
2023-03-07T01:36:35.957Z,4.43
2023-03-07T01:39:14.902Z,4.73
2023-03-07T01:41:52.894Z,4.93
2023-03-07T01:44:28.535Z,4.43
2023-03-07T01:46:58.196Z,4.70
2023-03-07T01:49:40.841Z,4.43
2023-03-07T01:52:16.001Z,4.33
2023-03-07T01:54:53.479Z,4.13
2023-03-07T01:57:26.712Z,4.00
2023-03-07T01:59:57.132Z,3.97
2023-03-07T02:02:25.332Z,4.17
2023-03-07T02:04:59.080Z,4.07
2023-03-07T02:07:31.039Z,3.53
2023-03-07T02:09:59.957Z,3.80
2023-03-07T02:12:27.406Z,3.30
2023-03-07T02:14:54.801Z,3.50
2023-03-07T02:17:24.769Z,3.80
2023-03-07T02:20:05.258Z,3.83
2023-03-07T02:22:32.183Z,3.83
2023-03-07T02:25:07.602Z,3.47
2023-03-07T02:27:37.014Z,3.67
2023-03-07T02:30:05.554Z,4.33
2023-03-07T02:32:32.750Z,5.27
2023-03-07T02:34:59.727Z,4.33
2023-03-07T02:37:38.109Z,3.43
2023-03-07T02:40:08.235Z,3.77
2023-03-07T02:42:38.940Z,4.33
2023-03-07T02:45:13.540Z,3.33
2023-03-07T02:47:43.218Z,3.50
2023-03-07T02:50:13.210Z,3.17
2023-03-07T02:52:42.449Z,3.47
2023-03-07T02:55:10.722Z,3.13
2023-03-07T02:57:42.278Z,3.57
2023-03-07T03:00:11.472Z,2.97
2023-03-07T03:02:38.624Z,2.73
2023-03-07T03:05:05.814Z,3.27
2023-03-07T03:07:32.635Z,3.00
2023-03-07T03:10:01.959Z,3.90
2023-03-07T03:12:30.797Z,2.60
2023-03-07T03:14:58.580Z,2.73
2023-03-07T03:17:25.386Z,2.90
2023-03-07T03:19:52.237Z,3.00
2023-03-07T03:22:19.071Z,2.83
2023-03-07T03:24:47.700Z,2.57
2023-03-07T03:27:16.887Z,2.40
2023-03-07T03:29:45.617Z,2.80
2023-03-07T03:32:12.845Z,2.77
2023-03-07T03:34:42.968Z,3.00
2023-03-07T03:37:09.800Z,2.63
2023-03-07T03:39:37.599Z,2.87
2023-03-07T03:42:06.201Z,2.67
2023-03-07T03:44:33.253Z,2.57
2023-03-07T03:47:00.517Z,2.63
2023-03-07T03:49:27.424Z,2.70
2023-03-07T03:51:55.272Z,3.07
2023-03-07T03:54:22.098Z,2.50
2023-03-07T03:56:48.960Z,3.00
2023-03-07T03:59:15.763Z,2.73
2023-03-07T04:01:43.004Z,2.80
2023-03-07T04:04:09.827Z,3.20
2023-03-07T04:06:37.811Z,2.53
2023-03-07T04:09:05.444Z,3.10
2023-03-07T04:11:33.003Z,2.73
2023-03-07T04:13:59.768Z,2.50
2023-03-07T04:16:27.024Z,2.93
2023-03-07T04:18:54.275Z,2.90
2023-03-07T04:21:22.364Z,2.87
2023-03-07T04:23:55.307Z,3.50
2023-03-07T04:26:24.023Z,2.43
2023-03-07T04:28:51.039Z,3.07
2023-03-07T04:31:40.642Z,2.87
2023-03-07T04:34:08.309Z,2.67
2023-03-07T04:36:35.179Z,2.80
2023-03-07T04:39:02.174Z,2.63
2023-03-07T04:41:30.377Z,3.20
2023-03-07T04:44:01.448Z,2.43
2023-03-07T04:46:28.353Z,2.57
2023-03-07T04:48:55.482Z,2.00
2023-03-07T04:51:22.754Z,2.27
2023-03-07T04:53:50.240Z,1.90
2023-03-07T04:56:17.400Z,2.00
2023-03-07T04:58:45.762Z,1.80
2023-03-07T05:01:13.566Z,2.40
2023-03-07T05:03:40.762Z,2.10
2023-03-07T05:06:14.095Z,2.10
2023-03-07T05:08:41.829Z,2.13
2023-03-07T05:11:09.578Z,2.23
2023-03-07T05:13:36.606Z,2.30
2023-03-07T05:16:03.968Z,2.30
2023-03-07T05:18:31.868Z,2.40
2023-03-07T05:20:59.817Z,2.00
2023-03-07T05:23:27.372Z,2.57
2023-03-07T05:25:55.392Z,1.87
2023-03-07T05:28:22.651Z,2.47
2023-03-07T05:30:49.650Z,2.30
2023-03-07T05:33:16.879Z,1.83
2023-03-07T05:35:43.821Z,1.60
2023-03-07T05:38:12.506Z,1.03
2023-03-07T05:40:40.273Z,0.80
2023-03-07T05:43:08.238Z,1.00
2023-03-07T05:45:35.324Z,1.00
2023-03-07T05:48:02.452Z,0.80
2023-03-07T05:50:30.860Z,0.57
2023-03-07T05:52:58.122Z,0.50
2023-03-07T05:55:28.162Z,0.53
2023-03-07T05:57:55.292Z,0.60
2023-03-07T06:00:22.798Z,0.73
2023-03-07T06:02:55.209Z,0.50
2023-03-07T06:05:23.734Z,0.50
2023-03-07T06:07:51.771Z,1.03
2023-03-07T06:10:19.097Z,0.50
2023-03-07T06:12:50.931Z,0.30
2023-03-07T06:15:18.591Z,0.83
2023-03-07T06:17:46.833Z,0.43
2023-03-07T06:20:13.840Z,0.70
2023-03-07T06:22:40.609Z,0.83
2023-03-07T06:25:09.043Z,0.70
2023-03-07T06:27:37.418Z,0.60
2023-03-07T06:30:06.626Z,1.03
2023-03-07T06:32:33.649Z,0.80
2023-03-07T06:35:02.053Z,1.03
2023-03-07T06:37:29.455Z,1.00
2023-03-07T06:39:58.953Z,1.03
2023-03-07T06:42:26.473Z,1.20
2023-03-07T06:44:53.453Z,1.00
2023-03-07T06:47:20.708Z,0.90
2023-03-07T06:49:47.522Z,1.20
2023-03-07T06:52:14.371Z,0.80
2023-03-07T06:54:41.192Z,1.80
2023-03-07T06:57:08.096Z,1.77
2023-03-07T06:59:35.115Z,1.00
2023-03-07T07:02:03.353Z,1.40
2023-03-07T07:04:30.822Z,1.30
2023-03-07T07:06:57.753Z,1.23
2023-03-07T07:09:26.902Z,1.43
2023-03-07T07:11:53.773Z,1.73
2023-03-07T07:14:22.005Z,1.63
2023-03-07T07:16:49.091Z,1.87
2023-03-07T07:19:16.327Z,1.80
2023-03-07T07:21:43.256Z,1.90
2023-03-07T07:24:12.831Z,2.10
2023-03-07T07:26:39.945Z,2.03
2023-03-07T07:29:07.814Z,2.20
2023-03-07T07:31:34.954Z,2.30
2023-03-07T07:34:01.888Z,2.00
2023-03-07T07:36:30.688Z,2.03
2023-03-07T07:38:58.220Z,2.13
2023-03-07T07:41:25.223Z,2.67
2023-03-07T07:43:54.931Z,3.00
2023-03-07T07:46:35.432Z,2.50
2023-03-07T07:49:03.270Z,2.43
2023-03-07T07:51:30.585Z,2.87
2023-03-07T07:53:57.480Z,3.17
2023-03-07T07:56:24.587Z,2.97
2023-03-07T07:58:52.596Z,2.47
2023-03-07T08:01:21.996Z,2.67
2023-03-07T08:03:49.475Z,2.50
2023-03-07T08:06:21.817Z,2.57
2023-03-07T08:08:49.567Z,2.90
2023-03-07T08:11:17.810Z,3.33
2023-03-07T08:13:44.848Z,3.07
2023-03-07T08:16:17.504Z,2.80
2023-03-07T08:18:49.269Z,3.30
2023-03-07T08:21:16.250Z,5.87
2023-03-07T08:23:43.009Z,3.03
2023-03-07T08:26:10.406Z,3.13
2023-03-07T08:28:38.173Z,3.87
2023-03-07T08:31:20.192Z,5.43
2023-03-07T08:33:47.467Z,3.90
2023-03-07T08:36:14.888Z,3.70
2023-03-07T08:38:41.972Z,3.90
2023-03-07T08:41:09.970Z,2.97
2023-03-07T08:43:39.203Z,3.70
2023-03-07T08:46:06.392Z,3.13
2023-03-07T08:48:33.396Z,3.47
2023-03-07T08:51:09.078Z,3.50
2023-03-07T08:53:37.068Z,3.30
2023-03-07T08:56:08.973Z,3.80
2023-03-07T08:58:37.625Z,3.10
2023-03-07T09:01:06.342Z,3.50
2023-03-07T09:03:33.904Z,3.17
2023-03-07T09:06:01.687Z,3.00
2023-03-07T09:08:29.048Z,3.60
2023-03-07T09:10:58.666Z,3.67
2023-03-07T09:13:25.470Z,3.60
2023-03-07T09:15:52.344Z,3.00
2023-03-07T09:18:19.130Z,3.57
2023-03-07T09:20:45.895Z,3.53
2023-03-07T09:23:12.711Z,3.27
2023-03-07T09:25:40.284Z,2.73
2023-03-07T09:28:07.075Z,2.77
2023-03-07T09:30:33.822Z,3.10
2023-03-07T09:33:01.896Z,3.00
2023-03-07T09:35:29.030Z,2.73
2023-03-07T09:37:55.778Z,2.70
2023-03-07T09:40:25.185Z,2.83
2023-03-07T09:43:18.666Z,2.60
2023-03-07T09:46:14.584Z,2.43
2023-03-07T09:49:26.601Z,2.57
2023-03-07T09:51:58.969Z,2.30
2023-03-07T09:54:45.727Z,2.60
2023-03-07T09:57:27.936Z,2.77
2023-03-07T10:00:25.642Z,2.93
2023-03-07T10:03:19.107Z,2.57
2023-03-07T10:05:50.567Z,3.50
2023-03-07T10:08:23.509Z,3.47
2023-03-07T10:11:10.956Z,2.87
2023-03-07T10:14:00.473Z,2.60
2023-03-07T10:16:49.340Z,2.63
2023-03-07T10:19:24.821Z,2.03
2023-03-07T10:22:13.280Z,2.77
2023-03-07T10:24:51.773Z,2.40
2023-03-07T10:27:22.925Z,2.00
2023-03-07T10:29:54.907Z,2.73
2023-03-07T10:32:23.486Z,3.60
2023-03-07T10:35:21.086Z,3.50
2023-03-07T10:37:51.090Z,3.10
2023-03-07T10:40:23.685Z,3.30
2023-03-07T10:42:50.424Z,2.80
2023-03-07T10:45:17.586Z,2.67
2023-03-07T10:47:44.354Z,3.00
2023-03-07T10:50:38.228Z,2.70
2023-03-07T10:53:17.260Z,2.40
2023-03-07T10:55:44.736Z,2.00
2023-03-07T10:58:23.845Z,1.80
2023-03-07T11:01:11.848Z,2.17
2023-03-07T11:03:51.492Z,2.07
2023-03-07T11:06:28.095Z,2.10
2023-03-07T11:08:56.198Z,2.70
2023-03-07T11:11:32.031Z,2.73
2023-03-07T11:14:14.759Z,3.37
2023-03-07T11:16:56.056Z,2.73
2023-03-07T11:19:42.615Z,2.37
2023-03-07T11:22:20.185Z,2.57
2023-03-07T11:24:59.791Z,2.23
2023-03-07T11:27:35.105Z,2.37
2023-03-07T11:30:18.868Z,2.37
2023-03-07T11:32:53.163Z,1.63
2023-03-07T11:35:23.811Z,1.30
2023-03-07T11:38:12.189Z,0.97
2023-03-07T11:41:00.024Z,0.90
2023-03-07T11:43:42.550Z,2.70
2023-03-07T11:46:34.486Z,1.27
2023-03-07T11:49:24.536Z,1.10
2023-03-07T11:51:53.995Z,1.23
2023-03-07T11:54:50.014Z,0.90
2023-03-07T11:57:31.552Z,0.70
2023-03-07T12:00:14.284Z,1.07
2023-03-07T12:02:56.148Z,0.63
2023-03-07T12:05:49.882Z,0.60
2023-03-07T12:08:32.648Z,0.80
2023-03-07T12:11:19.176Z,0.87
2023-03-07T12:14:03.918Z,0.90
2023-03-07T12:17:17.045Z,1.43
2023-03-07T12:19:52.913Z,0.97
2023-03-07T12:22:27.120Z,1.07
2023-03-07T12:25:24.667Z,1.30
2023-03-07T12:28:20.488Z,1.17
2023-03-07T12:31:05.916Z,0.93
2023-03-07T12:33:50.391Z,0.63
2023-03-07T12:36:55.946Z,0.50
2023-03-07T12:39:47.994Z,0.50
2023-03-07T12:42:33.397Z,0.63
2023-03-07T12:45:16.480Z,1.20
2023-03-07T12:47:55.494Z,0.50
2023-03-07T12:50:39.136Z,0.80
2023-03-07T12:53:25.202Z,0.60
2023-03-07T12:56:02.473Z,0.80
2023-03-07T12:58:38.716Z,0.77
2023-03-07T13:01:15.715Z,1.00
2023-03-07T13:03:55.328Z,0.50
2023-03-07T13:06:23.739Z,1.13
2023-03-07T13:08:54.751Z,0.60
2023-03-07T13:11:27.858Z,0.53
2023-03-07T13:13:59.389Z,0.63
2023-03-07T13:16:46.882Z,1.30
2023-03-07T13:19:35.095Z,0.70
2023-03-07T13:22:04.857Z,0.90
2023-03-07T13:24:39.943Z,0.80
2023-03-07T13:27:15.065Z,1.07
2023-03-07T13:30:13.396Z,1.07
2023-03-07T13:32:51.939Z,1.40
2023-03-07T13:35:30.841Z,1.20
2023-03-07T13:38:29.927Z,1.03
2023-03-07T13:41:04.598Z,1.50
2023-03-07T13:43:35.123Z,1.60
2023-03-07T13:46:03.365Z,1.30
2023-03-07T13:48:30.395Z,1.00
2023-03-07T13:51:02.967Z,1.40
2023-03-07T13:53:45.631Z,1.33
2023-03-07T13:56:15.494Z,1.40
2023-03-07T13:58:53.343Z,1.60
2023-03-07T14:01:31.229Z,1.40
2023-03-07T14:04:24.185Z,1.30
2023-03-07T14:07:02.335Z,1.37
2023-03-07T14:09:40.765Z,1.70
2023-03-07T14:12:13.510Z,1.70
2023-03-07T14:15:17.720Z,1.50
2023-03-07T14:18:06.301Z,1.90
2023-03-07T14:20:50.749Z,1.60
2023-03-07T14:23:47.270Z,1.30
2023-03-07T14:26:33.468Z,1.40
2023-03-07T14:29:02.709Z,1.30
2023-03-07T14:31:36.484Z,1.30
2023-03-07T14:34:25.655Z,1.50
2023-03-07T14:37:02.124Z,1.13
2023-03-07T14:40:00.726Z,1.10
2023-03-07T14:43:16.438Z,1.20
2023-03-07T14:46:18.507Z,1.40
2023-03-07T14:49:03.966Z,1.63
2023-03-07T14:51:31.062Z,1.00
2023-03-07T14:53:58.509Z,1.13
2023-03-07T14:56:29.812Z,1.33
2023-03-07T14:59:00.634Z,1.37
2023-03-07T15:01:32.473Z,1.47
2023-03-07T15:03:59.325Z,1.20
2023-03-07T15:06:27.849Z,1.73
2023-03-07T15:08:59.319Z,1.60
2023-03-07T15:11:41.130Z,1.77
2023-03-07T15:14:14.293Z,1.60
2023-03-07T15:16:42.936Z,1.50
2023-03-07T15:19:17.455Z,1.13
2023-03-07T15:21:47.730Z,1.50
2023-03-07T15:24:22.745Z,1.40
2023-03-07T15:26:55.297Z,1.13
2023-03-07T15:29:24.346Z,1.47
2023-03-07T15:31:53.934Z,1.23
2023-03-07T15:34:30.535Z,1.87
2023-03-07T15:37:24.449Z,1.30
2023-03-07T15:40:08.065Z,1.63
2023-03-07T15:42:48.157Z,1.77
2023-03-07T15:46:07.806Z,2.07
2023-03-07T15:48:48.750Z,2.00
2023-03-07T15:51:18.770Z,1.70
2023-03-07T15:53:57.265Z,2.23
2023-03-07T15:56:33.626Z,3.37
2023-03-07T15:59:05.019Z,3.67
2023-03-07T16:01:31.901Z,3.10
2023-03-07T16:04:04.037Z,3.63
2023-03-07T16:06:44.208Z,1.83
2023-03-07T16:09:16.008Z,1.83
2023-03-07T16:11:44.236Z,1.70
2023-03-07T16:14:26.048Z,2.43
2023-03-07T16:17:02.265Z,2.10
2023-03-07T16:19:29.782Z,1.80
2023-03-07T16:21:56.534Z,3.93
2023-03-07T16:24:23.558Z,2.90
2023-03-07T16:26:50.562Z,2.77
2023-03-07T16:29:20.311Z,2.70
2023-03-07T16:31:47.284Z,3.00
2023-03-07T16:34:17.510Z,2.33
2023-03-07T16:36:44.557Z,3.70
2023-03-07T16:39:12.127Z,2.40
2023-03-07T16:41:43.425Z,2.00
2023-03-07T16:44:22.069Z,2.33
2023-03-07T16:46:56.243Z,2.57
2023-03-07T16:49:23.395Z,2.70
2023-03-07T16:52:03.348Z,2.90
2023-03-07T16:54:32.853Z,2.67
2023-03-07T16:57:01.642Z,2.47
2023-03-07T16:59:35.269Z,2.70
2023-03-07T17:02:02.227Z,2.10
2023-03-07T17:04:29.081Z,2.10
2023-03-07T17:07:04.431Z,2.37
2023-03-07T17:09:31.507Z,3.33
2023-03-07T17:11:58.387Z,3.13
2023-03-07T17:14:25.530Z,2.50
2023-03-07T17:16:52.381Z,3.90
2023-03-07T17:19:28.201Z,2.70
2023-03-07T17:21:56.254Z,3.60
2023-03-07T17:24:23.121Z,3.57
2023-03-07T17:26:50.199Z,3.53
2023-03-07T17:29:28.201Z,3.90
2023-03-07T17:31:54.986Z,3.53
2023-03-07T17:34:28.436Z,3.23
2023-03-07T17:36:56.074Z,3.20
2023-03-07T17:39:23.738Z,3.40
2023-03-07T17:41:50.630Z,2.47
2023-03-07T17:44:18.135Z,1.17
2023-03-07T17:46:45.258Z,1.50
2023-03-07T17:49:12.488Z,1.67
2023-03-07T17:51:39.663Z,1.40
2023-03-07T17:54:08.207Z,0.50
2023-03-07T17:56:36.798Z,0.80
2023-03-07T17:59:05.160Z,1.20
2023-03-07T18:01:33.987Z,1.40
2023-03-07T18:04:02.175Z,1.30
2023-03-07T18:06:29.333Z,1.00
2023-03-07T18:08:56.091Z,1.27
2023-03-07T18:11:22.867Z,1.33
2023-03-07T18:13:49.908Z,1.50
2023-03-07T18:16:16.781Z,1.70
2023-03-07T18:18:58.314Z,1.70
2023-03-07T18:21:26.721Z,3.60
2023-03-07T18:23:53.551Z,2.73
2023-03-07T18:26:21.310Z,3.77
2023-03-07T18:28:49.687Z,3.77
2023-03-07T18:31:25.186Z,3.17
2023-03-07T18:33:53.399Z,3.40
2023-03-07T18:36:22.216Z,4.73
2023-03-07T18:38:49.797Z,5.90
2023-03-07T18:41:19.988Z,5.40
2023-03-07T18:43:47.342Z,4.20
2023-03-07T18:46:17.817Z,4.27
2023-03-07T18:48:45.203Z,5.47
2023-03-07T18:51:15.324Z,5.53
2023-03-07T18:53:43.175Z,5.93
2023-03-07T18:56:14.580Z,5.03
2023-03-07T18:58:42.814Z,5.10
2023-03-07T19:01:19.769Z,3.80
2023-03-07T19:03:48.486Z,4.57
2023-03-07T19:06:17.327Z,4.83
2023-03-07T19:08:44.351Z,4.60
2023-03-07T19:11:13.076Z,6.40
2023-03-07T19:13:40.284Z,7.93
2023-03-07T19:16:11.574Z,6.47
2023-03-07T19:18:38.992Z,7.00
2023-03-07T19:21:11.321Z,4.33
2023-03-07T19:23:38.757Z,4.30
2023-03-07T19:26:07.937Z,4.73
2023-03-07T19:28:35.180Z,4.77
2023-03-07T19:31:12.099Z,4.20
2023-03-07T19:33:39.364Z,4.93
2023-03-07T19:36:26.829Z,5.20
2023-03-07T19:38:56.267Z,5.00
2023-03-07T19:41:25.204Z,5.13
2023-03-07T19:43:52.520Z,4.63
2023-03-07T19:46:20.794Z,4.93
2023-03-07T19:48:47.758Z,4.97
2023-03-07T19:51:19.654Z,4.40
2023-03-07T19:53:47.028Z,4.63
2023-03-07T19:56:16.849Z,4.43
2023-03-07T19:58:43.707Z,4.37
2023-03-07T20:01:13.054Z,3.90
2023-03-07T20:03:40.527Z,4.33
2023-03-07T20:06:09.238Z,3.93
2023-03-07T20:08:36.099Z,3.00
2023-03-07T20:11:11.654Z,4.38
2023-03-07T20:13:39.334Z,3.50
2023-03-07T20:16:09.413Z,2.63
2023-03-07T20:18:37.879Z,4.47
2023-03-07T20:21:13.153Z,5.30
2023-03-07T20:23:42.701Z,4.63
2023-03-07T20:26:15.919Z,4.23
2023-03-07T20:28:43.254Z,4.77
2023-03-07T20:31:10.491Z,5.00
2023-03-07T20:33:38.936Z,4.17
2023-03-07T20:36:08.803Z,5.07
2023-03-07T20:38:39.673Z,5.07
2023-03-07T20:41:14.672Z,4.53
2023-03-07T20:43:41.818Z,3.77
2023-03-07T20:46:13.012Z,4.47
2023-03-07T20:48:40.415Z,5.10
2023-03-07T20:51:18.117Z,6.60
2023-03-07T20:53:49.932Z,5.70
2023-03-07T20:56:17.773Z,4.50
2023-03-07T20:58:44.810Z,4.83
2023-03-07T21:01:12.699Z,4.53
2023-03-07T21:03:39.697Z,4.73
2023-03-07T21:06:06.868Z,4.10
2023-03-07T21:08:35.898Z,3.93
2023-03-07T21:11:08.412Z,3.23
2023-03-07T21:13:37.715Z,2.63
2023-03-07T21:16:11.061Z,2.70
2023-03-07T21:18:38.524Z,2.50
2023-03-07T21:21:08.583Z,3.20
2023-03-07T21:23:35.930Z,2.67
2023-03-07T21:26:05.640Z,3.33
2023-03-07T21:28:33.663Z,3.20
2023-03-07T21:31:05.663Z,3.17
2023-03-07T21:33:33.525Z,3.20
2023-03-07T21:36:02.081Z,3.30
2023-03-07T21:38:29.879Z,3.60
2023-03-07T21:40:57.029Z,3.97
2023-03-07T21:43:24.090Z,3.47
2023-03-07T21:45:51.114Z,3.23
2023-03-07T21:48:19.251Z,2.97
2023-03-07T21:50:48.438Z,3.30
2023-03-07T21:53:15.748Z,3.03
2023-03-07T21:56:09.160Z,3.43
2023-03-07T21:58:37.123Z,5.10
2023-03-07T22:01:17.356Z,4.63
2023-03-07T22:03:44.245Z,4.40
2023-03-07T22:06:13.964Z,4.50
2023-03-07T22:08:41.513Z,3.80
2023-03-07T22:11:10.836Z,3.67
2023-03-07T22:13:39.591Z,3.00
2023-03-07T22:16:10.365Z,3.83
2023-03-07T22:18:37.714Z,5.57
2023-03-07T22:21:09.704Z,6.93
2023-03-07T22:23:36.843Z,6.33
2023-03-07T22:26:05.694Z,4.73
2023-03-07T22:28:32.888Z,3.87
2023-03-07T22:31:05.825Z,3.67
2023-03-07T22:33:33.203Z,2.60
2023-03-07T22:36:02.420Z,2.60
2023-03-07T22:38:29.712Z,3.20
2023-03-07T22:41:07.876Z,2.53
2023-03-07T22:43:35.817Z,2.63
2023-03-07T22:46:03.445Z,2.47
2023-03-07T22:48:31.146Z,3.03
2023-03-07T22:50:58.389Z,2.27
2023-03-07T22:53:28.456Z,1.77
2023-03-07T22:55:55.279Z,2.43
2023-03-07T22:58:22.048Z,2.27
2023-03-07T23:00:48.908Z,2.57
2023-03-07T23:03:15.705Z,2.30
2023-03-07T23:05:42.612Z,2.47
2023-03-07T23:08:10.429Z,2.30
2023-03-07T23:10:37.403Z,2.87
2023-03-07T23:13:04.168Z,3.47
2023-03-07T23:15:31.226Z,3.73
2023-03-07T23:17:58.581Z,3.43
2023-03-07T23:20:26.250Z,2.17
2023-03-07T23:22:53.846Z,2.33
2023-03-07T23:25:21.233Z,2.60
2023-03-07T23:27:48.235Z,2.60
2023-03-07T23:30:17.413Z,2.70
2023-03-07T23:32:44.321Z,3.23
2023-03-07T23:35:11.689Z,3.13
2023-03-07T23:37:38.983Z,2.63
2023-03-07T23:40:07.331Z,2.40
2023-03-07T23:42:34.714Z,2.07
2023-03-07T23:45:01.518Z,1.80
2023-03-07T23:47:28.380Z,2.67
2023-03-07T23:49:55.274Z,2.30
2023-03-07T23:52:22.188Z,1.93
2023-03-07T23:54:49.285Z,2.83
2023-03-07T23:57:16.317Z,3.13
2023-03-07T23:59:43.174Z,4.67
